Time;durP1;ratioP1;P1;durP2;ratioP2;P2;SDS_P1;SDS_P2;PMS_P1;PMS_P2;Temp;Humidity;BMP_temperature;BMP_pressure;BME280_temperature;BME280_humidity;BME280_pressure;Samples;Min_cycle;Max_cycle;Signal;HPM_P1;HPM_P2
2022/07/23 00:00:06;;;;;;;18.65;13.43;;;25.80;62.70;;;;;;5012273;28;20034;-73
2022/07/23 00:02:32;;;;;;;20.42;13.10;;;25.70;62.70;;;;;;5012245;28;20509;-73
2022/07/23 00:04:57;;;;;;;18.73;13.48;;;25.70;62.80;;;;;;5012494;28;20065;-71
2022/07/23 00:07:23;;;;;;;17.48;12.32;;;25.70;62.80;;;;;;5011798;28;20056;-72
2022/07/23 00:09:49;;;;;;;18.02;12.55;;;25.70;62.80;;;;;;5012094;28;20044;-72
2022/07/23 00:12:15;;;;;;;18.05;13.07;;;25.70;62.80;;;;;;5012149;28;20473;-73
2022/07/23 00:14:41;;;;;;;20.10;12.60;;;25.70;63.00;;;;;;4994776;28;20026;-72
2022/07/23 00:17:07;;;;;;;19.13;12.23;;;25.70;62.90;;;;;;5010540;28;20496;-72
2022/07/23 00:19:32;;;;;;;17.13;11.68;;;25.70;63.00;;;;;;5012285;28;20045;-72
2022/07/23 00:21:59;;;;;;;18.85;12.25;;;25.70;63.00;;;;;;5011927;28;20061;-73
2022/07/23 00:24:24;;;;;;;16.60;11.40;;;25.70;63.10;;;;;;5012145;28;20168;-72
2022/07/23 00:26:50;;;;;;;17.50;11.80;;;25.70;63.10;;;;;;5011608;28;20105;-72
2022/07/23 00:29:16;;;;;;;16.17;11.38;;;25.80;63.30;;;;;;5012025;28;20478;-73
2022/07/23 00:31:42;;;;;;;16.05;10.77;;;25.70;63.20;;;;;;5010713;28;20030;-73
2022/07/23 00:34:08;;;;;;;16.25;11.68;;;25.70;63.30;;;;;;5010589;28;20394;-73
2022/07/23 00:36:36;;;;;;;15.75;10.82;;;25.70;63.20;;;;;;5010570;28;20030;-72
2022/07/23 00:39:02;;;;;;;16.10;10.55;;;25.70;63.30;;;;;;5010622;28;20482;-72
2022/07/23 00:41:28;;;;;;;14.88;10.52;;;25.70;63.30;;;;;;5011127;28;20040;-73
2022/07/23 00:43:54;;;;;;;14.95;10.35;;;25.80;63.30;;;;;;4994554;28;20038;-72
2022/07/23 00:46:21;;;;;;;14.88;10.20;;;25.70;63.20;;;;;;5010303;28;20317;-72
2022/07/23 00:48:48;;;;;;;15.13;10.30;;;25.70;63.30;;;;;;5010841;28;20088;-73
2022/07/23 00:51:17;;;;;;;14.13;10.05;;;25.70;63.90;;;;;;5010525;28;20030;-72
2022/07/23 00:53:44;;;;;;;15.35;10.18;;;25.70;63.90;;;;;;5010880;28;20482;-72
2022/07/23 00:56:10;;;;;;;15.63;9.57;;;25.80;64.00;;;;;;5010219;28;20061;-73
2022/07/23 00:58:38;;;;;;;15.18;10.05;;;25.80;63.40;;;;;;5010702;28;20394;-71
2022/07/23 01:01:04;;;;;;;13.27;9.65;;;25.80;63.40;;;;;;5010516;28;20033;-71
2022/07/23 01:03:30;;;;;;;13.82;8.82;;;25.80;63.50;;;;;;5011693;28;20084;-72
2022/07/23 01:05:57;;;;;;;14.07;9.40;;;25.80;63.50;;;;;;5011238;28;20029;-72
2022/07/23 01:08:23;;;;;;;13.13;9.13;;;25.80;63.50;;;;;;4995819;28;20037;-71
2022/07/23 01:10:51;;;;;;;13.02;9.18;;;25.80;63.60;;;;;;4997770;28;20030;-71
2022/07/23 01:13:16;;;;;;;15.13;9.63;;;25.70;63.50;;;;;;4997745;28;20041;-71
2022/07/23 01:15:42;;;;;;;13.10;9.00;;;25.70;63.60;;;;;;5014862;28;20469;-71
2022/07/23 01:18:08;;;;;;;13.82;8.60;;;25.70;63.70;;;;;;4997678;28;20022;-72
2022/07/23 01:20:36;;;;;;;12.95;8.68;;;25.70;63.70;;;;;;4998013;28;20117;-72
2022/07/23 01:23:02;;;;;;;13.77;9.02;;;25.70;63.80;;;;;;5013873;28;20041;-72
2022/07/23 01:25:28;;;;;;;12.50;8.45;;;25.80;63.80;;;;;;5013630;28;20034;-73
2022/07/23 01:28:01;;;;;;;12.45;8.05;;;25.80;63.90;;;;;;5013795;28;20041;-72
2022/07/23 01:30:27;;;;;;;11.65;8.23;;;25.70;63.90;;;;;;4997507;28;20533;-72
2022/07/23 01:32:54;;;;;;;12.85;8.52;;;25.80;63.90;;;;;;5013691;28;20026;-71
2022/07/23 01:35:20;;;;;;;11.50;8.13;;;25.70;64.10;;;;;;5013319;28;20018;-72
2022/07/23 01:37:47;;;;;;;13.32;8.30;;;25.70;64.30;;;;;;4997246;28;20030;-71
2022/07/23 01:40:13;;;;;;;12.27;8.05;;;25.70;64.30;;;;;;5013684;28;20113;-72
2022/07/23 01:42:39;;;;;;;11.98;8.13;;;25.70;64.30;;;;;;5013608;28;20026;-72
2022/07/23 01:45:07;;;;;;;11.40;7.78;;;25.70;64.30;;;;;;5013258;28;20058;-71
2022/07/23 01:47:33;;;;;;;11.15;7.72;;;25.70;64.40;;;;;;5013389;28;20085;-71
2022/07/23 01:49:59;;;;;;;10.95;7.68;;;25.70;64.40;;;;;;5013248;28;20033;-71
2022/07/23 01:52:43;;;;;;;10.68;7.30;;;25.70;64.40;;;;;;5014612;28;20552;-71
2022/07/23 01:55:09;;;;;;;10.48;7.07;;;25.80;64.50;;;;;;5012985;28;20409;-71
2022/07/23 01:57:38;;;;;;;11.10;7.70;;;25.70;64.60;;;;;;4996855;28;20057;-72
2022/07/23 02:00:06;;;;;;;11.68;7.57;;;25.70;64.60;;;;;;4996821;28;20474;-71
2022/07/23 02:02:38;;;;;;;10.85;7.63;;;25.80;64.60;;;;;;5014568;28;20030;-71
2022/07/23 02:05:05;;;;;;;12.93;7.80;;;25.70;64.70;;;;;;4996640;28;20107;-72
2022/07/23 02:07:31;;;;;;;10.50;7.22;;;25.70;64.80;;;;;;4996848;28;20026;-72
2022/07/23 02:09:58;;;;;;;10.55;6.78;;;25.70;64.70;;;;;;4996673;28;20505;-72
2022/07/23 02:12:24;;;;;;;11.02;6.78;;;25.80;64.70;;;;;;4996714;28;20025;-72
2022/07/23 02:14:50;;;;;;;9.52;6.25;;;25.70;64.80;;;;;;4996711;28;20437;-72
2022/07/23 02:17:15;;;;;;;10.95;7.30;;;25.80;64.80;;;;;;5012539;28;20256;-72
2022/07/23 02:19:41;;;;;;;10.40;6.85;;;25.70;64.70;;;;;;5012375;28;20115;-72
2022/07/23 02:22:07;;;;;;;9.45;6.43;;;25.80;64.70;;;;;;5012982;28;20034;-72
2022/07/23 02:24:33;;;;;;;10.02;6.55;;;25.80;64.80;;;;;;5013060;28;20042;-72
2022/07/23 02:26:59;;;;;;;10.85;6.90;;;25.80;64.60;;;;;;5012363;28;20104;-72
2022/07/23 02:29:25;;;;;;;9.68;6.68;;;25.80;64.70;;;;;;5012653;28;20104;-71
2022/07/23 02:31:53;;;;;;;10.38;6.63;;;25.80;64.70;;;;;;4996269;28;20486;-72
2022/07/23 02:34:19;;;;;;;9.25;6.32;;;25.70;64.60;;;;;;5012485;28;20030;-71
2022/07/23 02:36:45;;;;;;;9.07;6.47;;;25.80;64.70;;;;;;4995846;28;20453;-72
2022/07/23 02:39:11;;;;;;;10.02;6.57;;;25.70;64.50;;;;;;5012434;28;20501;-72
2022/07/23 02:41:38;;;;;;;11.25;6.72;;;25.80;64.70;;;;;;5012865;28;20430;-71
2022/07/23 02:44:03;;;;;;;8.98;6.32;;;25.70;64.70;;;;;;5012532;28;20033;-72
2022/07/23 02:46:30;;;;;;;8.05;6.07;;;25.80;64.70;;;;;;5011968;28;20105;-72
2022/07/23 02:48:57;;;;;;;9.25;6.22;;;25.70;64.70;;;;;;5012208;28;20548;-72
2022/07/23 02:51:23;;;;;;;9.63;6.40;;;25.70;64.70;;;;;;5012196;28;20029;-72
2022/07/23 02:53:54;;;;;;;8.82;6.13;;;25.70;64.80;;;;;;4996118;28;20026;-71
2022/07/23 02:56:20;;;;;;;8.52;6.05;;;25.70;64.70;;;;;;5011907;28;20057;-72
2022/07/23 02:58:46;;;;;;;10.02;6.47;;;25.70;64.70;;;;;;5012177;28;20073;-72
2022/07/23 03:01:13;;;;;;;9.40;6.13;;;25.70;64.80;;;;;;5012096;28;20042;-72
2022/07/23 03:03:39;;;;;;;10.77;6.30;;;25.80;64.80;;;;;;5012198;28;20103;-72
2022/07/23 03:06:05;;;;;;;9.65;6.20;;;25.70;64.70;;;;;;5011608;28;20116;-72
2022/07/23 03:08:31;;;;;;;7.30;5.40;;;25.80;64.80;;;;;;5012293;28;20064;-72
2022/07/23 03:10:57;;;;;;;10.63;6.45;;;25.70;64.70;;;;;;5011797;28;20026;-71
2022/07/23 03:13:23;;;;;;;8.05;5.75;;;25.70;64.70;;;;;;5011817;28;20108;-72
2022/07/23 03:15:49;;;;;;;10.90;5.97;;;25.70;64.70;;;;;;5011429;28;20029;-72
2022/07/23 03:18:14;;;;;;;10.13;6.32;;;25.70;64.90;;;;;;5011641;28;20371;-71
2022/07/23 03:20:40;;;;;;;9.15;6.18;;;25.70;64.90;;;;;;5011663;28;20116;-72
2022/07/23 03:23:08;;;;;;;8.02;6.03;;;25.70;64.90;;;;;;5011812;28;20034;-72
2022/07/23 03:25:34;;;;;;;7.95;5.65;;;25.70;64.70;;;;;;4995084;28;20482;-72
2022/07/23 03:28:00;;;;;;;8.48;5.65;;;25.70;64.80;;;;;;5011679;28;20044;-72
2022/07/23 03:30:28;;;;;;;8.68;5.95;;;25.70;64.70;;;;;;4994776;28;20029;-72
2022/07/23 03:32:54;;;;;;;9.40;5.70;;;25.70;64.80;;;;;;5011566;28;20470;-72
2022/07/23 03:35:20;;;;;;;8.32;5.40;;;25.70;64.70;;;;;;5011159;28;20029;-72
2022/07/23 03:37:59;;;;;;;8.75;5.40;;;25.70;64.80;;;;;;5011331;28;20030;-72
2022/07/23 03:40:26;;;;;;;7.40;5.28;;;25.70;64.70;;;;;;5011367;28;20096;-71
2022/07/23 03:42:51;;;;;;;10.80;6.35;;;25.80;64.80;;;;;;5011416;28;20037;-72
2022/07/23 03:45:17;;;;;;;9.82;5.50;;;25.70;64.70;;;;;;5011171;28;20034;-72
2022/07/23 03:47:44;;;;;;;9.48;5.80;;;25.70;64.80;;;;;;5011379;28;20030;-72
2022/07/23 03:50:10;;;;;;;9.57;5.70;;;25.70;64.90;;;;;;5011196;28;20026;-72
2022/07/23 03:52:36;;;;;;;8.55;5.75;;;25.70;64.90;;;;;;4995338;28;20025;-72
2022/07/23 03:55:03;;;;;;;8.60;5.90;;;25.70;65.00;;;;;;4994719;28;20034;-71
2022/07/23 03:57:29;;;;;;;9.93;6.20;;;25.70;64.90;;;;;;4994546;28;20022;-71
2022/07/23 03:59:55;;;;;;;7.43;5.32;;;25.70;65.10;;;;;;4994801;28;20475;-72
2022/07/23 04:02:21;;;;;;;7.32;5.38;;;25.80;65.00;;;;;;5010880;28;20110;-72
2022/07/23 04:04:47;;;;;;;8.50;5.03;;;25.70;65.00;;;;;;5011064;28;20536;-71
2022/07/23 04:07:13;;;;;;;9.68;5.57;;;25.80;65.10;;;;;;4994481;28;20041;-71
2022/07/23 04:09:40;;;;;;;6.72;4.75;;;25.70;65.00;;;;;;5010940;28;20026;-71
2022/07/23 04:12:07;;;;;;;7.07;5.10;;;25.80;65.10;;;;;;4994714;28;20095;-71
2022/07/23 04:14:33;;;;;;;7.28;5.35;;;25.70;65.10;;;;;;5010877;28;20067;-72
2022/07/23 04:16:59;;;;;;;6.40;4.65;;;25.70;65.10;;;;;;5010375;28;20050;-71
2022/07/23 04:19:26;;;;;;;7.03;5.03;;;25.70;65.10;;;;;;5010858;28;20034;-71
2022/07/23 04:21:59;;;;;;;7.07;4.88;;;25.70;64.90;;;;;;4995716;28;20030;-71
2022/07/23 04:24:26;;;;;;;9.25;6.07;;;25.70;64.90;;;;;;4994572;28;20104;-71
2022/07/23 04:26:52;;;;;;;9.50;5.30;;;25.70;65.10;;;;;;5010541;28;20053;-71
2022/07/23 04:29:19;;;;;;;8.10;5.68;;;25.70;65.00;;;;;;5010664;28;20049;-72
2022/07/23 04:31:45;;;;;;;6.47;4.90;;;25.70;64.90;;;;;;5010724;28;20034;-71
2022/07/23 04:34:11;;;;;;;6.80;5.13;;;25.70;65.10;;;;;;5010749;28;20022;-72
2022/07/23 04:36:36;;;;;;;9.10;4.85;;;25.70;65.10;;;;;;4994046;28;20490;-72
2022/07/23 04:39:02;;;;;;;6.63;4.70;;;25.70;65.10;;;;;;5010684;28;20482;-72
2022/07/23 04:41:29;;;;;;;6.75;4.93;;;25.70;65.10;;;;;;5010825;28;20033;-71
2022/07/23 04:43:55;;;;;;;7.97;4.40;;;25.70;65.10;;;;;;5014529;28;20034;-71
2022/07/23 04:46:21;;;;;;;7.95;4.93;;;25.70;65.20;;;;;;5014259;28;20474;-71
2022/07/23 04:48:49;;;;;;;11.10;5.13;;;25.70;65.00;;;;;;5014552;28;20105;-72
2022/07/23 04:51:16;;;;;;;7.25;5.15;;;25.70;65.10;;;;;;4998335;28;20037;-72
2022/07/23 04:53:42;;;;;;;7.47;5.20;;;25.70;65.40;;;;;;4998099;28;20414;-72
2022/07/23 04:56:08;;;;;;;6.63;5.10;;;25.70;65.30;;;;;;5014068;28;20022;-73
2022/07/23 04:58:34;;;;;;;7.63;4.78;;;25.70;65.40;;;;;;5014323;28;20101;-73
2022/07/23 05:01:00;;;;;;;6.28;4.60;;;25.70;65.00;;;;;;5014281;28;20034;-72
2022/07/23 05:03:29;;;;;;;6.70;4.80;;;25.70;65.10;;;;;;5014307;28;20061;-73
2022/07/23 05:05:55;;;;;;;7.80;4.55;;;25.70;65.20;;;;;;5013985;28;20076;-73
2022/07/23 05:08:21;;;;;;;7.80;5.00;;;25.70;65.10;;;;;;5014268;28;20033;-73
2022/07/23 05:10:51;;;;;;;6.05;4.20;;;25.70;64.90;;;;;;5014123;28;20030;-73
2022/07/23 05:13:18;;;;;;;6.75;4.50;;;25.70;65.20;;;;;;5014017;28;20033;-73
2022/07/23 05:15:44;;;;;;;9.73;4.70;;;25.70;65.10;;;;;;5014052;28;20029;-72
2022/07/23 05:18:10;;;;;;;6.25;4.38;;;25.70;65.10;;;;;;5014208;28;20018;-73
2022/07/23 05:20:37;;;;;;;7.05;4.82;;;25.70;65.10;;;;;;5013321;28;20029;-73
2022/07/23 05:23:03;;;;;;;8.10;4.88;;;25.70;65.20;;;;;;4989431;28;20074;-73
2022/07/23 05:25:29;;;;;;;6.93;4.88;;;25.70;64.90;;;;;;4993767;28;20034;-70
2022/07/23 05:27:55;;;;;;;7.15;4.63;;;25.70;65.20;;;;;;5010666;28;20033;-72
2022/07/23 05:30:21;;;;;;;6.80;4.55;;;25.70;65.30;;;;;;5013608;28;20034;-72
2022/07/23 05:32:50;;;;;;;7.28;4.43;;;25.70;65.20;;;;;;4997814;28;20044;-72
2022/07/23 05:35:17;;;;;;;5.70;4.15;;;25.70;64.90;;;;;;4989039;28;20034;-71
2022/07/23 05:37:52;;;;;;;6.50;4.55;;;25.70;65.00;;;;;;5014016;28;20038;-72
2022/07/23 05:40:19;;;;;;;6.50;4.28;;;25.70;64.90;;;;;;5013500;28;20058;-71
2022/07/23 05:42:45;;;;;;;5.47;3.92;;;25.70;65.30;;;;;;4997385;28;20033;-71
2022/07/23 05:45:11;;;;;;;8.38;4.30;;;25.70;65.10;;;;;;4997005;28;20042;-71
2022/07/23 05:47:45;;;;;;;6.70;4.30;;;25.70;64.90;;;;;;4981711;28;20030;-71
2022/07/23 05:50:14;;;;;;;6.00;4.15;;;25.70;65.30;;;;;;4977709;28;20038;-72
2022/07/23 05:52:47;;;;;;;5.35;3.72;;;25.70;65.10;;;;;;4994027;28;20030;-71
2022/07/23 05:55:31;;;;;;;5.55;4.20;;;25.70;65.10;;;;;;4994160;28;20113;-72
2022/07/23 05:57:58;;;;;;;6.88;4.63;;;25.70;65.20;;;;;;4977434;28;20038;-72
2022/07/23 06:00:26;;;;;;;6.75;4.25;;;25.70;65.40;;;;;;4993521;28;20030;-72
2022/07/23 06:02:52;;;;;;;6.32;3.72;;;25.70;65.20;;;;;;4993612;28;20034;-72
2022/07/23 06:05:18;;;;;;;8.38;4.68;;;25.70;65.30;;;;;;4993241;28;20046;-72
2022/07/23 06:07:45;;;;;;;7.57;4.47;;;25.70;65.30;;;;;;4993521;28;20038;-72
2022/07/23 06:10:12;;;;;;;6.72;4.28;;;25.70;65.30;;;;;;4993542;28;20045;-72
2022/07/23 06:12:39;;;;;;;8.23;3.97;;;25.70;65.10;;;;;;4993384;28;20027;-72
2022/07/23 06:15:05;;;;;;;7.28;4.35;;;25.70;65.10;;;;;;4993202;28;20031;-72
2022/07/23 06:17:33;;;;;;;6.18;4.28;;;25.70;65.00;;;;;;4993174;28;20026;-72
2022/07/23 06:19:59;;;;;;;6.20;4.28;;;25.70;65.10;;;;;;4960902;28;20038;-71
2022/07/23 06:22:26;;;;;;;7.18;4.18;;;25.70;65.10;;;;;;4977167;28;20033;-72
2022/07/23 06:24:52;;;;;;;7.20;4.45;;;25.70;65.30;;;;;;4976993;28;20031;-71
2022/07/23 06:27:19;;;;;;;7.20;4.68;;;25.60;65.00;;;;;;4992949;28;20102;-72
2022/07/23 06:29:45;;;;;;;5.55;4.22;;;25.60;65.10;;;;;;4993204;28;20034;-72
2022/07/23 06:32:11;;;;;;;5.82;4.10;;;25.70;65.20;;;;;;4993065;28;20038;-72
2022/07/23 06:34:37;;;;;;;6.10;4.13;;;25.60;65.20;;;;;;4993012;28;20026;-73
2022/07/23 06:37:03;;;;;;;6.65;3.83;;;25.70;65.30;;;;;;4992652;28;20033;-73
2022/07/23 06:39:28;;;;;;;7.03;3.92;;;25.60;65.20;;;;;;4976751;28;20117;-73
2022/07/23 06:41:57;;;;;;;5.82;3.70;;;25.60;65.20;;;;;;4992890;28;20031;-73
2022/07/23 06:44:35;;;;;;;6.80;3.85;;;25.70;65.20;;;;;;4992879;28;20109;-72
2022/07/23 06:47:00;;;;;;;6.15;4.00;;;25.70;65.60;;;;;;4993617;28;20101;-73
2022/07/23 06:49:26;;;;;;;6.30;4.05;;;25.70;65.30;;;;;;4992779;28;20534;-72
2022/07/23 06:51:52;;;;;;;6.18;4.13;;;25.70;65.40;;;;;;4993021;28;20505;-73
2022/07/23 06:54:18;;;;;;;5.22;3.65;;;25.70;65.20;;;;;;4976541;28;20502;-73
2022/07/23 06:56:44;;;;;;;5.38;3.78;;;25.70;65.00;;;;;;4976225;28;20030;-73
2022/07/23 06:59:10;;;;;;;6.13;3.70;;;25.70;65.20;;;;;;4992596;28;20478;-73
2022/07/23 07:01:36;;;;;;;6.43;4.40;;;25.70;65.20;;;;;;4992528;28;20034;-73
2022/07/23 07:04:02;;;;;;;5.07;4.15;;;25.70;65.00;;;;;;4993656;28;20403;-74
2022/07/23 07:06:27;;;;;;;5.70;3.75;;;25.70;65.00;;;;;;4993147;28;20026;-73
2022/07/23 07:08:53;;;;;;;5.03;3.78;;;25.70;65.00;;;;;;4993880;28;20025;-73
2022/07/23 07:11:19;;;;;;;5.18;3.53;;;25.70;65.00;;;;;;4992543;28;20487;-73
2022/07/23 07:13:45;;;;;;;5.38;3.53;;;25.70;64.80;;;;;;4993464;28;20483;-73
2022/07/23 07:16:10;;;;;;;6.18;3.58;;;25.70;64.90;;;;;;4991709;28;20069;-73
2022/07/23 07:18:36;;;;;;;7.57;4.00;;;25.70;64.70;;;;;;5008906;28;20030;-74
2022/07/23 07:21:02;;;;;;;5.25;3.55;;;25.70;65.00;;;;;;5008492;28;20038;-74
2022/07/23 07:23:28;;;;;;;5.88;3.85;;;25.70;65.10;;;;;;4992014;28;20038;-72
2022/07/23 07:25:54;;;;;;;5.65;3.83;;;25.60;64.80;;;;;;4992912;28;20065;-73
2022/07/23 07:28:19;;;;;;;6.53;4.00;;;25.60;64.90;;;;;;4993274;28;20496;-72
2022/07/23 07:30:48;;;;;;;5.50;3.65;;;25.60;65.10;;;;;;4993106;28;20455;-72
2022/07/23 07:33:13;;;;;;;4.63;3.30;;;25.70;65.00;;;;;;4991915;28;20435;-73
2022/07/23 07:35:39;;;;;;;5.80;3.40;;;25.60;64.80;;;;;;4992776;28;20026;-71
2022/07/23 07:38:05;;;;;;;5.57;3.75;;;25.60;64.70;;;;;;4991781;28;20018;-71
2022/07/23 07:40:33;;;;;;;4.45;3.55;;;25.70;65.00;;;;;;4991870;28;20061;-73
2022/07/23 07:42:59;;;;;;;4.35;3.05;;;25.60;64.80;;;;;;4991679;28;20035;-73
2022/07/23 07:45:25;;;;;;;6.00;3.42;;;25.60;64.70;;;;;;4992618;28;20092;-74
2022/07/23 07:47:52;;;;;;;5.15;3.70;;;25.60;64.70;;;;;;4992767;28;20475;-73
2022/07/23 07:50:20;;;;;;;5.40;3.60;;;25.60;64.90;;;;;;4992851;28;20076;-73
2022/07/23 07:52:45;;;;;;;4.65;3.47;;;25.60;65.10;;;;;;4959511;28;20041;-73
2022/07/23 07:55:12;;;;;;;6.30;3.85;;;25.60;65.20;;;;;;4992547;28;20034;-72
2022/07/23 07:57:38;;;;;;;7.88;3.40;;;25.60;64.80;;;;;;4992482;28;20497;-72
2022/07/23 08:00:07;;;;;;;6.03;3.60;;;25.60;64.80;;;;;;4992740;28;20034;-72
2022/07/23 08:02:49;;;;;;;5.20;3.70;;;25.60;65.00;;;;;;4992618;28;20512;-73
2022/07/23 08:05:18;;;;;;;4.97;3.45;;;25.60;64.90;;;;;;4992399;28;20414;-72
2022/07/23 08:07:46;;;;;;;5.18;3.33;;;25.60;64.70;;;;;;4992480;28;20058;-74
2022/07/23 08:10:12;;;;;;;4.38;3.30;;;25.60;64.90;;;;;;4992991;28;20391;-72
2022/07/23 08:12:46;;;;;;;4.72;3.17;;;25.60;64.90;;;;;;4991325;28;20026;-74
2022/07/23 08:15:13;;;;;;;4.95;3.63;;;25.70;64.70;;;;;;4992685;28;20105;-73
2022/07/23 08:17:40;;;;;;;4.60;3.33;;;25.60;64.80;;;;;;4991926;28;20058;-73
2022/07/23 08:20:07;;;;;;;6.43;3.92;;;25.70;65.10;;;;;;4992316;28;20031;-73
2022/07/23 08:22:48;;;;;;;5.75;3.67;;;25.70;65.10;;;;;;4991071;28;20402;-73
2022/07/23 08:25:15;;;;;;;5.25;3.30;;;25.70;65.00;;;;;;4992056;28;20042;-73
2022/07/23 08:27:41;;;;;;;7.10;3.50;;;25.70;65.30;;;;;;4992219;28;20080;-74
2022/07/23 08:30:08;;;;;;;4.00;3.10;;;25.70;65.30;;;;;;4992198;28;20026;-73
2022/07/23 08:32:46;;;;;;;5.20;3.50;;;25.70;65.90;;;;;;4992305;28;20097;-72
2022/07/23 08:35:12;;;;;;;4.93;3.77;;;25.70;65.40;;;;;;4992043;28;20201;-72
2022/07/23 08:37:38;;;;;;;5.55;3.55;;;25.70;65.50;;;;;;4991021;28;20037;-73
2022/07/23 08:40:05;;;;;;;4.25;3.03;;;25.70;65.20;;;;;;4992250;28;20030;-73
2022/07/23 08:42:31;;;;;;;5.40;3.58;;;25.80;65.30;;;;;;4992192;28;20030;-72
2022/07/23 08:44:57;;;;;;;5.82;3.40;;;25.70;65.20;;;;;;4992272;28;20042;-71
2022/07/23 08:47:25;;;;;;;4.90;3.22;;;25.70;65.30;;;;;;4991852;28;20030;-73
2022/07/23 08:49:51;;;;;;;4.10;3.10;;;25.70;65.30;;;;;;4990744;28;20406;-72
2022/07/23 08:52:17;;;;;;;4.53;3.10;;;25.70;65.30;;;;;;4992174;28;20040;-72
2022/07/23 08:54:43;;;;;;;4.38;3.03;;;25.70;65.40;;;;;;4991278;28;20030;-73
2022/07/23 08:57:09;;;;;;;5.57;3.10;;;25.80;65.40;;;;;;4990605;28;20053;-73
2022/07/23 08:59:36;;;;;;;4.25;3.10;;;25.70;65.20;;;;;;4992029;28;20391;-72
2022/07/23 09:02:01;;;;;;;5.40;3.30;;;25.70;65.20;;;;;;4992163;28;20031;-72
2022/07/23 09:04:27;;;;;;;5.22;3.25;;;25.80;65.30;;;;;;4991944;28;20469;-73
2022/07/23 09:06:54;;;;;;;5.40;3.40;;;25.70;65.40;;;;;;4990335;28;20059;-73
2022/07/23 09:09:20;;;;;;;4.50;3.30;;;25.70;65.30;;;;;;4991902;28;20034;-73
2022/07/23 09:11:47;;;;;;;6.47;2.80;;;25.70;65.30;;;;;;4990707;28;20023;-72
2022/07/23 09:14:13;;;;;;;4.90;3.20;;;25.70;65.20;;;;;;4992160;28;20049;-72
2022/07/23 09:16:39;;;;;;;7.85;3.00;;;25.70;65.50;;;;;;4991596;28;20037;-68
2022/07/23 09:19:07;;;;;;;8.35;4.75;;;25.80;65.20;;;;;;4991954;28;20138;-72
2022/07/23 09:21:37;;;;;;;10.57;4.93;;;25.70;63.00;;;;;;4990648;28;20112;-68
2022/07/23 09:24:08;;;;;;;10.82;4.57;;;25.70;61.40;;;;;;4991915;28;20077;-67
2022/07/23 09:26:43;;;;;;;12.05;5.78;;;25.60;61.60;;;;;;5006557;28;20427;-67
2022/07/23 09:29:19;;;;;;;8.45;3.55;;;25.50;60.90;;;;;;4992991;28;20391;-68
2022/07/23 09:31:56;;;;;;;11.82;3.53;;;25.50;60.00;;;;;;4995376;28;20584;-67
2022/07/23 09:34:26;;;;;;;9.55;3.35;;;25.40;60.70;;;;;;4995327;28;20027;-67
2022/07/23 09:37:10;;;;;;;6.82;2.83;;;25.40;62.90;;;;;;4995049;28;20035;-67
2022/07/23 09:39:36;;;;;;;9.43;3.20;;;25.40;61.50;;;;;;4994160;28;20038;-67
2022/07/23 09:42:19;;;;;;;14.82;3.13;;;25.40;61.30;;;;;;4995296;28;20037;-67
2022/07/23 09:44:47;;;;;;;7.00;2.80;;;25.30;60.70;;;;;;5010550;28;20030;-67
2022/07/23 09:47:13;;;;;;;8.63;2.80;;;25.30;59.40;;;;;;4994855;28;20317;-68
2022/07/23 09:49:39;;;;;;;11.65;3.15;;;25.30;59.30;;;;;;4995040;28;20378;-75
2022/07/23 09:52:05;;;;;;;8.90;3.22;;;25.30;59.30;;;;;;5010361;28;20114;-78
2022/07/23 09:54:40;;;;;;;10.60;2.90;;;25.40;59.50;;;;;;4993634;28;20076;-72
2022/07/23 09:57:16;;;;;;;14.27;3.72;;;25.40;59.90;;;;;;4995010;28;20451;-75
2022/07/23 09:59:46;;;;;;;12.52;3.30;;;25.40;59.10;;;;;;4993812;28;20044;-72
2022/07/23 10:02:15;;;;;;;8.10;3.00;;;25.40;60.00;;;;;;5010330;28;20038;-74
2022/07/23 10:05:04;;;;;;;8.35;2.90;;;25.40;60.30;;;;;;4954136;28;20046;-73
2022/07/23 10:08:03;;;;;;;12.05;3.28;;;25.50;58.70;;;;;;4970560;28;20042;-74
2022/07/23 10:10:49;;;;;;;12.93;3.22;;;25.40;58.70;;;;;;5003537;28;20045;-73
2022/07/23 10:13:54;;;;;;;9.75;3.38;;;25.40;58.30;;;;;;5012666;28;20490;-75
2022/07/23 10:16:25;;;;;;;18.58;4.55;;;25.40;59.50;;;;;;4996946;28;20482;-72
2022/07/23 10:18:52;;;;;;;13.10;3.35;;;25.40;59.00;;;;;;5013162;28;20474;-73
2022/07/23 10:21:40;;;;;;;14.73;3.63;;;25.50;59.70;;;;;;5012803;28;20050;-73
2022/07/23 10:24:47;;;;;;;10.32;2.90;;;25.50;60.50;;;;;;5014148;28;20034;-73
2022/07/23 10:27:34;;;;;;;17.23;3.35;;;25.50;60.40;;;;;;5014140;28;20029;-74
2022/07/23 10:30:07;;;;;;;13.30;4.57;;;25.50;60.30;;;;;;5013794;28;20092;-74
2022/07/23 10:32:35;;;;;;;11.82;3.40;;;25.50;60.30;;;;;;5013883;28;20032;-73
2022/07/23 10:35:20;;;;;;;9.50;3.35;;;25.50;60.20;;;;;;5012528;28;20052;-72
2022/07/23 10:37:51;;;;;;;10.57;3.53;;;25.50;60.30;;;;;;5038810;23;20046;-78
2022/07/23 10:40:21;;;;;;;10.10;3.15;;;25.50;60.30;;;;;;5048730;28;20037;-78
2022/07/23 10:42:48;;;;;;;10.00;2.80;;;25.40;60.30;;;;;;5033933;28;20122;-78
2022/07/23 10:45:26;;;;;;;9.18;3.00;;;25.50;60.30;;;;;;5033295;28;20040;-78
2022/07/23 10:47:52;;;;;;;8.63;3.25;;;25.40;60.40;;;;;;5032197;28;20030;-78
2022/07/23 10:50:34;;;;;;;11.45;3.47;;;25.50;60.50;;;;;;5032191;28;20124;-78
2022/07/23 10:53:09;;;;;;;10.05;3.08;;;25.50;60.60;;;;;;5015531;28;20504;-78
2022/07/23 10:55:35;;;;;;;7.57;3.20;;;25.50;60.60;;;;;;5033236;28;20189;-78
2022/07/23 10:58:04;;;;;;;7.88;3.20;;;25.50;60.50;;;;;;5032116;28;20032;-78
2022/07/23 11:00:31;;;;;;;7.00;2.85;;;25.50;60.70;;;;;;5033384;28;20393;-78
2022/07/23 11:03:00;;;;;;;10.23;3.35;;;25.50;60.70;;;;;;5033300;28;20025;-78
2022/07/23 11:05:45;;;;;;;11.20;3.03;;;25.50;60.70;;;;;;5031560;28;20036;-78
2022/07/23 11:08:17;;;;;;;7.88;3.08;;;25.50;60.80;;;;;;5031750;28;20029;-78
2022/07/23 11:10:51;;;;;;;12.32;3.30;;;25.40;60.70;;;;;;5031755;28;20041;-78
2022/07/23 11:13:31;;;;;;;6.70;2.72;;;25.50;60.80;;;;;;5015884;28;20041;-78
2022/07/23 11:16:04;;;;;;;7.80;3.00;;;25.50;60.90;;;;;;5014951;28;20033;-78
2022/07/23 11:18:39;;;;;;;8.85;3.03;;;25.50;60.90;;;;;;5015552;28;20038;-78
2022/07/23 11:21:23;;;;;;;7.10;2.40;;;25.50;60.90;;;;;;5015346;28;20128;-78
2022/07/23 11:24:11;;;;;;;9.05;3.00;;;25.50;60.90;;;;;;5031570;28;20496;-78
2022/07/23 11:26:39;;;;;;;8.75;3.10;;;25.50;61.00;;;;;;5032415;28;20033;-78
2022/07/23 11:29:27;;;;;;;6.47;2.45;;;25.50;60.90;;;;;;5032706;28;20033;-78
2022/07/23 11:31:59;;;;;;;10.63;2.97;;;25.50;60.90;;;;;;5032644;28;20037;-78
2022/07/23 11:34:31;;;;;;;6.22;2.83;;;25.50;61.00;;;;;;5015515;28;20095;-77
2022/07/23 11:36:57;;;;;;;9.45;2.80;;;25.50;61.00;;;;;;5031946;28;20508;-77
2022/07/23 11:39:28;;;;;;;9.23;2.95;;;25.50;61.10;;;;;;5031584;28;20043;-78
2022/07/23 11:41:55;;;;;;;7.30;2.72;;;25.50;61.20;;;;;;5032485;28;20029;-78
2022/07/23 11:44:26;;;;;;;6.15;2.90;;;25.50;61.10;;;;;;5031266;28;20060;-78
2022/07/23 11:46:59;;;;;;;8.35;2.97;;;25.50;61.20;;;;;;5032132;28;20033;-78
2022/07/23 11:49:26;;;;;;;6.53;2.15;;;25.50;61.10;;;;;;5032534;28;20501;-78
2022/07/23 11:52:10;;;;;;;7.03;2.83;;;25.50;61.40;;;;;;5030494;28;20508;-78
2022/07/23 11:54:50;;;;;;;7.15;2.65;;;25.50;61.30;;;;;;5031328;28;20067;-77
2022/07/23 11:57:17;;;;;;;5.40;2.65;;;25.50;61.30;;;;;;5030904;28;20033;-77
2022/07/23 11:59:45;;;;;;;5.63;2.50;;;25.50;61.40;;;;;;5030867;28;20090;-77
2022/07/23 12:02:11;;;;;;;5.15;2.70;;;25.50;61.40;;;;;;5014718;28;20045;-77
2022/07/23 12:04:39;;;;;;;5.90;2.50;;;25.50;61.40;;;;;;5014485;28;20474;-78
2022/07/23 12:07:22;;;;;;;5.35;2.40;;;25.50;61.40;;;;;;5014008;28;20063;-78
2022/07/23 12:09:48;;;;;;;8.93;2.72;;;25.50;61.50;;;;;;5031829;28;20056;-77
2022/07/23 12:12:15;;;;;;;6.53;2.60;;;25.50;61.50;;;;;;5014357;28;20072;-78
2022/07/23 12:14:49;;;;;;;6.45;2.67;;;25.50;61.60;;;;;;5032077;28;20032;-78
2022/07/23 12:17:15;;;;;;;7.30;2.78;;;25.50;61.50;;;;;;5031687;28;20437;-78
2022/07/23 12:19:41;;;;;;;4.88;2.55;;;25.50;61.60;;;;;;5031937;28;20083;-77
2022/07/23 12:22:07;;;;;;;4.78;2.50;;;25.50;61.60;;;;;;5031880;28;20057;-78
2022/07/23 12:24:59;;;;;;;6.93;2.50;;;25.50;61.70;;;;;;5030591;28;20544;-78
2022/07/23 12:27:26;;;;;;;6.35;2.85;;;25.40;61.60;;;;;;5013806;28;20401;-78
2022/07/23 12:29:52;;;;;;;5.35;2.40;;;25.50;61.70;;;;;;5031617;28;20029;-77
2022/07/23 12:32:20;;;;;;;4.45;2.33;;;25.40;61.70;;;;;;5031731;28;20105;-76
2022/07/23 12:34:49;;;;;;;5.05;2.63;;;25.50;61.80;;;;;;5030404;28;20040;-77
2022/07/23 12:37:29;;;;;;;6.13;2.53;;;25.40;61.70;;;;;;5013718;28;20044;-76
2022/07/23 12:39:55;;;;;;;6.50;2.40;;;25.40;61.70;;;;;;5031673;28;20238;-78
2022/07/23 12:42:26;;;;;;;4.53;2.30;;;25.40;61.80;;;;;;5030490;28;20032;-77
2022/07/23 12:45:19;;;;;;;7.00;2.40;;;25.40;61.80;;;;;;5031863;28;20033;-77
2022/07/23 12:47:59;;;;;;;4.75;2.38;;;25.40;61.80;;;;;;5026361;28;20037;-77
2022/07/23 12:50:32;;;;;;;6.07;2.45;;;25.40;61.80;;;;;;5031563;28;20500;-77